sensor_id;sensor_type;location;lat;lon;timestamp;P1;durP1;ratioP1;P2;durP2;ratioP2
64011;SDS011;50211;52.768;12.124;2022-07-23T00:02:24;6.90;;;3.10;;
64011;SDS011;50211;52.768;12.124;2022-07-23T00:04:49;7.32;;;2.85;;
64011;SDS011;50211;52.768;12.124;2022-07-23T00:07:15;7.80;;;3.40;;
64011;SDS011;50211;52.768;12.124;2022-07-23T00:09:40;5.38;;;3.28;;
64011;SDS011;50211;52.768;12.124;2022-07-23T00:12:06;7.10;;;3.28;;
64011;SDS011;50211;52.768;12.124;2022-07-23T00:14:31;5.97;;;3.50;;
64011;SDS011;50211;52.768;12.124;2022-07-23T00:16:57;5.28;;;2.88;;
64011;SDS011;50211;52.768;12.124;2022-07-23T00:19:22;6.07;;;2.95;;
64011;SDS011;50211;52.768;12.124;2022-07-23T00:21:48;6.80;;;4.00;;
64011;SDS011;50211;52.768;12.124;2022-07-23T00:24:14;7.15;;;3.88;;
64011;SDS011;50211;52.768;12.124;2022-07-23T00:26:39;7.70;;;3.83;;
64011;SDS011;50211;52.768;12.124;2022-07-23T00:29:05;6.40;;;3.50;;
64011;SDS011;50211;52.768;12.124;2022-07-23T00:31:30;6.45;;;3.85;;
64011;SDS011;50211;52.768;12.124;2022-07-23T00:33:56;6.43;;;3.72;;
64011;SDS011;50211;52.768;12.124;2022-07-23T00:36:22;5.90;;;3.22;;
64011;SDS011;50211;52.768;12.124;2022-07-23T00:38:48;8.05;;;3.55;;
64011;SDS011;50211;52.768;12.124;2022-07-23T00:41:14;6.13;;;3.83;;
64011;SDS011;50211;52.768;12.124;2022-07-23T00:43:40;6.90;;;3.50;;
64011;SDS011;50211;52.768;12.124;2022-07-23T00:46:05;7.00;;;3.60;;
64011;SDS011;50211;52.768;12.124;2022-07-23T00:48:31;8.25;;;3.28;;
64011;SDS011;50211;52.768;12.124;2022-07-23T00:50:56;5.97;;;3.45;;
64011;SDS011;50211;52.768;12.124;2022-07-23T00:53:22;7.80;;;4.05;;
64011;SDS011;50211;52.768;12.124;2022-07-23T00:55:48;11.23;;;4.15;;
64011;SDS011;50211;52.768;12.124;2022-07-23T00:58:14;6.03;;;4.10;;
64011;SDS011;50211;52.768;12.124;2022-07-23T01:00:40;7.75;;;4.00;;
64011;SDS011;50211;52.768;12.124;2022-07-23T01:03:06;4.53;;;3.28;;
64011;SDS011;50211;52.768;12.124;2022-07-23T01:05:32;3.78;;;3.40;;
64011;SDS011;50211;52.768;12.124;2022-07-23T01:07:58;6.75;;;3.70;;
64011;SDS011;50211;52.768;12.124;2022-07-23T01:10:24;7.85;;;3.42;;
64011;SDS011;50211;52.768;12.124;2022-07-23T01:13:03;8.25;;;3.65;;
64011;SDS011;50211;52.768;12.124;2022-07-23T01:15:33;4.45;;;3.28;;
64011;SDS011;50211;52.768;12.124;2022-07-23T01:18:00;6.30;;;4.00;;
64011;SDS011;50211;52.768;12.124;2022-07-23T01:20:26;5.55;;;3.70;;
64011;SDS011;50211;52.768;12.124;2022-07-23T01:22:52;8.90;;;3.85;;
64011;SDS011;50211;52.768;12.124;2022-07-23T01:25:18;5.78;;;3.72;;
64011;SDS011;50211;52.768;12.124;2022-07-23T01:27:44;6.10;;;3.00;;
64011;SDS011;50211;52.768;12.124;2022-07-23T01:30:10;7.13;;;3.28;;
64011;SDS011;50211;52.768;12.124;2022-07-23T01:32:36;5.55;;;3.05;;
64011;SDS011;50211;52.768;12.124;2022-07-23T01:35:02;5.85;;;3.30;;
64011;SDS011;50211;52.768;12.124;2022-07-23T01:37:27;8.40;;;3.95;;
64011;SDS011;50211;52.768;12.124;2022-07-23T01:39:53;5.28;;;3.15;;
64011;SDS011;50211;52.768;12.124;2022-07-23T01:42:18;3.17;;;2.92;;
64011;SDS011;50211;52.768;12.124;2022-07-23T01:44:44;6.18;;;3.38;;
64011;SDS011;50211;52.768;12.124;2022-07-23T01:47:09;4.53;;;3.50;;
64011;SDS011;50211;52.768;12.124;2022-07-23T01:49:35;8.05;;;4.00;;
64011;SDS011;50211;52.768;12.124;2022-07-23T01:52:00;10.98;;;3.72;;
64011;SDS011;50211;52.768;12.124;2022-07-23T01:54:26;6.53;;;4.10;;
64011;SDS011;50211;52.768;12.124;2022-07-23T01:56:56;6.45;;;4.10;;
64011;SDS011;50211;52.768;12.124;2022-07-23T01:59:22;8.05;;;4.30;;
64011;SDS011;50211;52.768;12.124;2022-07-23T02:01:48;5.57;;;3.95;;
64011;SDS011;50211;52.768;12.124;2022-07-23T02:04:16;7.72;;;4.07;;
64011;SDS011;50211;52.768;12.124;2022-07-23T02:06:49;6.03;;;3.70;;
64011;SDS011;50211;52.768;12.124;2022-07-23T02:09:15;6.10;;;3.45;;
64011;SDS011;50211;52.768;12.124;2022-07-23T02:11:41;5.82;;;4.03;;
64011;SDS011;50211;52.768;12.124;2022-07-23T02:14:06;8.00;;;4.32;;
64011;SDS011;50211;52.768;12.124;2022-07-23T02:16:32;6.55;;;4.80;;
64011;SDS011;50211;52.768;12.124;2022-07-23T02:18:58;9.98;;;5.43;;
64011;SDS011;50211;52.768;12.124;2022-07-23T02:21:23;8.90;;;5.00;;
64011;SDS011;50211;52.768;12.124;2022-07-23T02:23:49;7.18;;;4.97;;
64011;SDS011;50211;52.768;12.124;2022-07-23T02:26:14;13.35;;;4.93;;
64011;SDS011;50211;52.768;12.124;2022-07-23T02:28:40;8.25;;;4.93;;
64011;SDS011;50211;52.768;12.124;2022-07-23T02:31:05;6.28;;;4.30;;
64011;SDS011;50211;52.768;12.124;2022-07-23T02:33:32;8.23;;;5.03;;
64011;SDS011;50211;52.768;12.124;2022-07-23T02:35:57;7.65;;;5.28;;
64011;SDS011;50211;52.768;12.124;2022-07-23T02:38:23;6.28;;;4.75;;
64011;SDS011;50211;52.768;12.124;2022-07-23T02:40:49;7.32;;;4.68;;
64011;SDS011;50211;52.768;12.124;2022-07-23T02:43:14;10.50;;;4.82;;
64011;SDS011;50211;52.768;12.124;2022-07-23T02:45:40;8.35;;;4.82;;
64011;SDS011;50211;52.768;12.124;2022-07-23T02:48:05;6.63;;;4.65;;
64011;SDS011;50211;52.768;12.124;2022-07-23T02:50:31;8.70;;;4.75;;
64011;SDS011;50211;52.768;12.124;2022-07-23T02:52:56;11.43;;;5.70;;
64011;SDS011;50211;52.768;12.124;2022-07-23T02:55:22;7.15;;;5.22;;
64011;SDS011;50211;52.768;12.124;2022-07-23T02:57:47;9.73;;;5.35;;
64011;SDS011;50211;52.768;12.124;2022-07-23T03:00:13;8.30;;;5.45;;
64011;SDS011;50211;52.768;12.124;2022-07-23T03:02:38;8.07;;;5.88;;
64011;SDS011;50211;52.768;12.124;2022-07-23T03:05:04;10.88;;;6.20;;
64011;SDS011;50211;52.768;12.124;2022-07-23T03:07:30;12.88;;;6.30;;
64011;SDS011;50211;52.768;12.124;2022-07-23T03:09:55;8.57;;;6.07;;
64011;SDS011;50211;52.768;12.124;2022-07-23T03:12:21;9.15;;;6.15;;
64011;SDS011;50211;52.768;12.124;2022-07-23T03:14:47;9.75;;;5.90;;
64011;SDS011;50211;52.768;12.124;2022-07-23T03:17:12;10.63;;;6.32;;
64011;SDS011;50211;52.768;12.124;2022-07-23T03:19:38;11.43;;;6.20;;
64011;SDS011;50211;52.768;12.124;2022-07-23T03:22:03;11.90;;;7.15;;
64011;SDS011;50211;52.768;12.124;2022-07-23T03:24:29;8.90;;;6.18;;
64011;SDS011;50211;52.768;12.124;2022-07-23T03:27:13;9.20;;;6.07;;
64011;SDS011;50211;52.768;12.124;2022-07-23T03:29:39;10.82;;;6.43;;
64011;SDS011;50211;52.768;12.124;2022-07-23T03:32:05;11.23;;;6.30;;
64011;SDS011;50211;52.768;12.124;2022-07-23T03:34:30;10.82;;;6.55;;
64011;SDS011;50211;52.768;12.124;2022-07-23T03:36:56;8.68;;;5.85;;
64011;SDS011;50211;52.768;12.124;2022-07-23T03:39:21;10.55;;;6.20;;
64011;SDS011;50211;52.768;12.124;2022-07-23T03:41:47;14.32;;;6.53;;
64011;SDS011;50211;52.768;12.124;2022-07-23T03:44:12;9.25;;;6.47;;
64011;SDS011;50211;52.768;12.124;2022-07-23T03:46:38;10.10;;;6.47;;
64011;SDS011;50211;52.768;12.124;2022-07-23T03:49:03;11.57;;;5.72;;
64011;SDS011;50211;52.768;12.124;2022-07-23T03:51:28;12.48;;;6.57;;
64011;SDS011;50211;52.768;12.124;2022-07-23T03:53:54;7.13;;;5.47;;
64011;SDS011;50211;52.768;12.124;2022-07-23T03:56:20;10.10;;;5.45;;
64011;SDS011;50211;52.768;12.124;2022-07-23T03:58:46;8.27;;;5.18;;
64011;SDS011;50211;52.768;12.124;2022-07-23T04:01:11;13.45;;;5.70;;
64011;SDS011;50211;52.768;12.124;2022-07-23T04:03:37;10.38;;;6.07;;
64011;SDS011;50211;52.768;12.124;2022-07-23T04:06:02;9.43;;;6.50;;
64011;SDS011;50211;52.768;12.124;2022-07-23T04:08:28;11.93;;;7.00;;
64011;SDS011;50211;52.768;12.124;2022-07-23T04:10:54;10.38;;;6.22;;
64011;SDS011;50211;52.768;12.124;2022-07-23T04:13:20;9.07;;;5.90;;
64011;SDS011;50211;52.768;12.124;2022-07-23T04:15:46;8.80;;;5.43;;
64011;SDS011;50211;52.768;12.124;2022-07-23T04:18:11;10.80;;;6.35;;
64011;SDS011;50211;52.768;12.124;2022-07-23T04:20:37;11.18;;;6.03;;
64011;SDS011;50211;52.768;12.124;2022-07-23T04:23:03;8.68;;;5.57;;
64011;SDS011;50211;52.768;12.124;2022-07-23T04:25:28;10.73;;;6.07;;
64011;SDS011;50211;52.768;12.124;2022-07-23T04:27:54;8.15;;;5.32;;
64011;SDS011;50211;52.768;12.124;2022-07-23T04:30:19;7.45;;;5.60;;
64011;SDS011;50211;52.768;12.124;2022-07-23T04:32:45;7.78;;;5.10;;
64011;SDS011;50211;52.768;12.124;2022-07-23T04:35:10;7.70;;;5.53;;
64011;SDS011;50211;52.768;12.124;2022-07-23T04:37:36;12.73;;;5.70;;
64011;SDS011;50211;52.768;12.124;2022-07-23T04:40:01;8.32;;;5.78;;
64011;SDS011;50211;52.768;12.124;2022-07-23T04:42:27;11.02;;;5.97;;
64011;SDS011;50211;52.768;12.124;2022-07-23T04:44:53;10.52;;;6.60;;
64011;SDS011;50211;52.768;12.124;2022-07-23T04:47:18;9.68;;;5.85;;
64011;SDS011;50211;52.768;12.124;2022-07-23T04:49:44;11.65;;;6.07;;
64011;SDS011;50211;52.768;12.124;2022-07-23T04:52:09;10.23;;;5.05;;
64011;SDS011;50211;52.768;12.124;2022-07-23T04:54:35;9.25;;;5.35;;
64011;SDS011;50211;52.768;12.124;2022-07-23T04:57:00;8.55;;;5.30;;
64011;SDS011;50211;52.768;12.124;2022-07-23T04:59:25;8.98;;;5.63;;
64011;SDS011;50211;52.768;12.124;2022-07-23T05:01:51;7.00;;;5.25;;
64011;SDS011;50211;52.768;12.124;2022-07-23T05:04:16;10.77;;;5.47;;
64011;SDS011;50211;52.768;12.124;2022-07-23T05:06:42;6.53;;;5.45;;
64011;SDS011;50211;52.768;12.124;2022-07-23T05:09:07;7.82;;;5.25;;
64011;SDS011;50211;52.768;12.124;2022-07-23T05:11:33;8.20;;;5.65;;
64011;SDS011;50211;52.768;12.124;2022-07-23T05:13:58;11.38;;;6.80;;
64011;SDS011;50211;52.768;12.124;2022-07-23T05:16:24;10.73;;;6.30;;
64011;SDS011;50211;52.768;12.124;2022-07-23T05:18:49;10.20;;;6.15;;
64011;SDS011;50211;52.768;12.124;2022-07-23T05:21:15;13.38;;;6.05;;
64011;SDS011;50211;52.768;12.124;2022-07-23T05:23:40;8.75;;;5.32;;
64011;SDS011;50211;52.768;12.124;2022-07-23T05:26:05;6.45;;;5.18;;
64011;SDS011;50211;52.768;12.124;2022-07-23T05:28:31;9.50;;;5.50;;
64011;SDS011;50211;52.768;12.124;2022-07-23T05:30:56;8.02;;;5.60;;
64011;SDS011;50211;52.768;12.124;2022-07-23T05:33:22;8.68;;;5.50;;
64011;SDS011;50211;52.768;12.124;2022-07-23T05:35:47;7.68;;;5.38;;
64011;SDS011;50211;52.768;12.124;2022-07-23T05:38:13;7.75;;;5.65;;
64011;SDS011;50211;52.768;12.124;2022-07-23T05:40:38;8.15;;;5.63;;
64011;SDS011;50211;52.768;12.124;2022-07-23T05:43:04;9.45;;;5.53;;
64011;SDS011;50211;52.768;12.124;2022-07-23T05:45:29;12.05;;;5.55;;
64011;SDS011;50211;52.768;12.124;2022-07-23T05:47:55;13.68;;;5.88;;
64011;SDS011;50211;52.768;12.124;2022-07-23T05:50:20;7.35;;;5.07;;
64011;SDS011;50211;52.768;12.124;2022-07-23T05:52:46;9.38;;;5.78;;
64011;SDS011;50211;52.768;12.124;2022-07-23T05:55:12;7.60;;;5.50;;
64011;SDS011;50211;52.768;12.124;2022-07-23T05:57:38;10.27;;;6.53;;
64011;SDS011;50211;52.768;12.124;2022-07-23T06:00:05;14.20;;;6.30;;
64011;SDS011;50211;52.768;12.124;2022-07-23T06:02:32;12.02;;;5.93;;
64011;SDS011;50211;52.768;12.124;2022-07-23T06:04:58;8.73;;;6.15;;
64011;SDS011;50211;52.768;12.124;2022-07-23T06:07:23;7.88;;;6.03;;
64011;SDS011;50211;52.768;12.124;2022-07-23T06:09:49;9.32;;;5.97;;
64011;SDS011;50211;52.768;12.124;2022-07-23T06:12:15;9.02;;;6.07;;
64011;SDS011;50211;52.768;12.124;2022-07-23T06:14:41;9.98;;;6.25;;
64011;SDS011;50211;52.768;12.124;2022-07-23T06:17:07;9.10;;;6.30;;
64011;SDS011;50211;52.768;12.124;2022-07-23T06:19:32;8.77;;;6.20;;
64011;SDS011;50211;52.768;12.124;2022-07-23T06:21:58;13.45;;;6.82;;
64011;SDS011;50211;52.768;12.124;2022-07-23T06:24:23;9.63;;;6.40;;
64011;SDS011;50211;52.768;12.124;2022-07-23T06:26:49;12.32;;;6.57;;
64011;SDS011;50211;52.768;12.124;2022-07-23T06:29:14;7.28;;;5.63;;
64011;SDS011;50211;52.768;12.124;2022-07-23T06:31:40;13.73;;;6.20;;
64011;SDS011;50211;52.768;12.124;2022-07-23T06:34:05;16.92;;;6.72;;
64011;SDS011;50211;52.768;12.124;2022-07-23T06:36:31;7.68;;;6.13;;
64011;SDS011;50211;52.768;12.124;2022-07-23T06:38:56;8.77;;;6.25;;
64011;SDS011;50211;52.768;12.124;2022-07-23T06:41:22;12.63;;;6.13;;
64011;SDS011;50211;52.768;12.124;2022-07-23T06:43:47;8.63;;;6.03;;
64011;SDS011;50211;52.768;12.124;2022-07-23T06:46:13;8.23;;;5.45;;
64011;SDS011;50211;52.768;12.124;2022-07-23T06:48:39;10.00;;;6.18;;
64011;SDS011;50211;52.768;12.124;2022-07-23T06:51:04;6.85;;;5.50;;
64011;SDS011;50211;52.768;12.124;2022-07-23T06:53:30;8.63;;;5.47;;
64011;SDS011;50211;52.768;12.124;2022-07-23T06:55:56;7.72;;;5.15;;
64011;SDS011;50211;52.768;12.124;2022-07-23T06:58:21;12.75;;;5.63;;
64011;SDS011;50211;52.768;12.124;2022-07-23T07:00:47;9.65;;;5.95;;
64011;SDS011;50211;52.768;12.124;2022-07-23T07:03:12;12.10;;;5.78;;
64011;SDS011;50211;52.768;12.124;2022-07-23T07:05:38;10.60;;;6.10;;
64011;SDS011;50211;52.768;12.124;2022-07-23T07:08:05;13.57;;;6.35;;
64011;SDS011;50211;52.768;12.124;2022-07-23T07:10:30;11.13;;;5.32;;
64011;SDS011;50211;52.768;12.124;2022-07-23T07:12:56;10.48;;;5.63;;
64011;SDS011;50211;52.768;12.124;2022-07-23T07:15:22;6.78;;;4.28;;
64011;SDS011;50211;52.768;12.124;2022-07-23T07:17:47;7.82;;;3.67;;
64011;SDS011;50211;52.768;12.124;2022-07-23T07:20:13;5.38;;;3.65;;
64011;SDS011;50211;52.768;12.124;2022-07-23T07:22:38;9.98;;;3.15;;
64011;SDS011;50211;52.768;12.124;2022-07-23T07:25:04;6.38;;;2.90;;
64011;SDS011;50211;52.768;12.124;2022-07-23T07:27:30;8.35;;;3.00;;
64011;SDS011;50211;52.768;12.124;2022-07-23T07:29:56;5.75;;;2.10;;
64011;SDS011;50211;52.768;12.124;2022-07-23T07:32:21;7.97;;;2.80;;
64011;SDS011;50211;52.768;12.124;2022-07-23T07:34:47;4.82;;;2.83;;
64011;SDS011;50211;52.768;12.124;2022-07-23T07:37:12;5.40;;;2.92;;
64011;SDS011;50211;52.768;12.124;2022-07-23T07:39:38;7.28;;;3.00;;
64011;SDS011;50211;52.768;12.124;2022-07-23T07:42:04;5.97;;;2.58;;
64011;SDS011;50211;52.768;12.124;2022-07-23T07:44:29;7.18;;;3.00;;
64011;SDS011;50211;52.768;12.124;2022-07-23T07:46:55;5.25;;;2.80;;
64011;SDS011;50211;52.768;12.124;2022-07-23T07:49:20;4.72;;;2.70;;
64011;SDS011;50211;52.768;12.124;2022-07-23T07:51:46;7.32;;;2.65;;
64011;SDS011;50211;52.768;12.124;2022-07-23T07:54:12;7.90;;;2.22;;
64011;SDS011;50211;52.768;12.124;2022-07-23T07:56:37;7.07;;;2.80;;
64011;SDS011;50211;52.768;12.124;2022-07-23T07:59:03;8.60;;;2.75;;
64011;SDS011;50211;52.768;12.124;2022-07-23T08:01:28;6.07;;;2.35;;
64011;SDS011;50211;52.768;12.124;2022-07-23T08:03:54;3.30;;;2.50;;
64011;SDS011;50211;52.768;12.124;2022-07-23T08:06:19;3.45;;;2.30;;
64011;SDS011;50211;52.768;12.124;2022-07-23T08:08:45;5.45;;;2.50;;
64011;SDS011;50211;52.768;12.124;2022-07-23T08:11:10;4.95;;;2.53;;
64011;SDS011;50211;52.768;12.124;2022-07-23T08:13:36;7.80;;;2.78;;
64011;SDS011;50211;52.768;12.124;2022-07-23T08:16:01;6.10;;;3.08;;
64011;SDS011;50211;52.768;12.124;2022-07-23T08:18:27;7.20;;;2.92;;
64011;SDS011;50211;52.768;12.124;2022-07-23T08:20:52;10.05;;;2.60;;
64011;SDS011;50211;52.768;12.124;2022-07-23T08:23:18;3.13;;;2.63;;
64011;SDS011;50211;52.768;12.124;2022-07-23T08:25:44;4.85;;;2.22;;
64011;SDS011;50211;52.768;12.124;2022-07-23T08:28:11;4.78;;;2.30;;
64011;SDS011;50211;52.768;12.124;2022-07-23T08:30:38;9.68;;;3.35;;
64011;SDS011;50211;52.768;12.124;2022-07-23T08:33:14;5.30;;;2.97;;
64011;SDS011;50211;52.768;12.124;2022-07-23T08:35:45;5.80;;;3.00;;
64011;SDS011;50211;52.768;12.124;2022-07-23T08:38:16;7.20;;;2.97;;
64011;SDS011;50211;52.768;12.124;2022-07-23T08:40:44;6.00;;;2.38;;
64011;SDS011;50211;52.768;12.124;2022-07-23T08:43:12;9.05;;;3.08;;
64011;SDS011;50211;52.768;12.124;2022-07-23T08:45:43;3.78;;;2.30;;
64011;SDS011;50211;52.768;12.124;2022-07-23T08:48:14;5.50;;;2.67;;
64011;SDS011;50211;52.768;12.124;2022-07-23T08:50:42;3.25;;;2.22;;
64011;SDS011;50211;52.768;12.124;2022-07-23T08:53:09;7.18;;;2.30;;
64011;SDS011;50211;52.768;12.124;2022-07-23T08:55:35;4.22;;;2.20;;
64011;SDS011;50211;52.768;12.124;2022-07-23T08:58:00;5.60;;;2.70;;
64011;SDS011;50211;52.768;12.124;2022-07-23T09:00:26;2.88;;;2.35;;
64011;SDS011;50211;52.768;12.124;2022-07-23T09:02:53;11.07;;;2.47;;
64011;SDS011;50211;52.768;12.124;2022-07-23T09:05:19;3.85;;;1.98;;
64011;SDS011;50211;52.768;12.124;2022-07-23T09:08:04;10.32;;;2.10;;
64011;SDS011;50211;52.768;12.124;2022-07-23T09:10:30;4.80;;;2.00;;
64011;SDS011;50211;52.768;12.124;2022-07-23T09:12:59;6.60;;;2.58;;
64011;SDS011;50211;52.768;12.124;2022-07-23T09:15:25;11.77;;;2.78;;
64011;SDS011;50211;52.768;12.124;2022-07-23T09:17:50;6.68;;;2.15;;
64011;SDS011;50211;52.768;12.124;2022-07-23T09:20:16;5.93;;;2.17;;
64011;SDS011;50211;52.768;12.124;2022-07-23T09:22:45;6.85;;;2.28;;
64011;SDS011;50211;52.768;12.124;2022-07-23T09:25:13;3.25;;;2.10;;
64011;SDS011;50211;52.768;12.124;2022-07-23T09:27:46;4.32;;;1.80;;
64011;SDS011;50211;52.768;12.124;2022-07-23T09:30:15;3.70;;;2.22;;
64011;SDS011;50211;52.768;12.124;2022-07-23T09:32:41;6.20;;;2.00;;
64011;SDS011;50211;52.768;12.124;2022-07-23T09:35:06;3.63;;;2.30;;
64011;SDS011;50211;52.768;12.124;2022-07-23T09:37:32;4.80;;;2.15;;
64011;SDS011;50211;52.768;12.124;2022-07-23T09:40:08;4.07;;;2.53;;
64011;SDS011;50211;52.768;12.124;2022-07-23T09:42:36;5.55;;;1.95;;
64011;SDS011;50211;52.768;12.124;2022-07-23T09:45:02;4.43;;;2.15;;
64011;SDS011;50211;52.768;12.124;2022-07-23T09:47:31;2.42;;;1.70;;
64011;SDS011;50211;52.768;12.124;2022-07-23T09:50:07;3.05;;;2.13;;
64011;SDS011;50211;52.768;12.124;2022-07-23T09:52:36;3.65;;;2.13;;
64011;SDS011;50211;52.768;12.124;2022-07-23T09:55:08;2.63;;;1.90;;
64011;SDS011;50211;52.768;12.124;2022-07-23T09:57:34;7.88;;;2.28;;
64011;SDS011;50211;52.768;12.124;2022-07-23T10:00:01;4.28;;;2.25;;
64011;SDS011;50211;52.768;12.124;2022-07-23T10:02:34;4.30;;;1.95;;
64011;SDS011;50211;52.768;12.124;2022-07-23T10:05:01;6.45;;;2.47;;
64011;SDS011;50211;52.768;12.124;2022-07-23T10:07:27;4.50;;;2.00;;
64011;SDS011;50211;52.768;12.124;2022-07-23T10:09:56;3.55;;;1.83;;
64011;SDS011;50211;52.768;12.124;2022-07-23T10:12:23;3.58;;;1.85;;
64011;SDS011;50211;52.768;12.124;2022-07-23T10:15:02;3.35;;;1.67;;
64011;SDS011;50211;52.768;12.124;2022-07-23T10:17:31;4.10;;;2.00;;
64011;SDS011;50211;52.768;12.124;2022-07-23T10:19:58;2.78;;;1.63;;
64011;SDS011;50211;52.768;12.124;2022-07-23T10:22:27;4.05;;;1.77;;
64011;SDS011;50211;52.768;12.124;2022-07-23T10:33:39;1.92;;;1.30;;
64011;SDS011;50211;52.768;12.124;2022-07-23T10:36:42;4.70;;;1.30;;
64011;SDS011;50211;52.768;12.124;2022-07-23T10:39:24;5.30;;;1.30;;
64011;SDS011;50211;52.768;12.124;2022-07-23T10:41:53;3.33;;;1.35;;
64011;SDS011;50211;52.768;12.124;2022-07-23T10:44:46;5.43;;;1.58;;
64011;SDS011;50211;52.768;12.124;2022-07-23T10:47:21;2.60;;;1.40;;
64011;SDS011;50211;52.768;12.124;2022-07-23T10:50:17;3.25;;;1.20;;
64011;SDS011;50211;52.768;12.124;2022-07-23T10:52:42;4.25;;;1.38;;
64011;SDS011;50211;52.768;12.124;2022-07-23T10:57:59;8.25;;;1.85;;
64011;SDS011;50211;52.768;12.124;2022-07-23T11:00:30;1.85;;;1.02;;
64011;SDS011;50211;52.768;12.124;2022-07-23T11:02:57;5.05;;;1.75;;
64011;SDS011;50211;52.768;12.124;2022-07-23T11:05:25;3.53;;;1.40;;
64011;SDS011;50211;52.768;12.124;2022-07-23T11:10:42;5.22;;;1.38;;
64011;SDS011;50211;52.768;12.124;2022-07-23T11:32:01;3.28;;;1.20;;
64011;SDS011;50211;52.768;12.124;2022-07-23T11:37:01;3.22;;;1.35;;
64011;SDS011;50211;52.768;12.124;2022-07-23T11:39:28;3.17;;;1.42;;
64011;SDS011;50211;52.768;12.124;2022-07-23T11:41:56;2.40;;;1.45;;
64011;SDS011;50211;52.768;12.124;2022-07-23T11:46:56;3.28;;;1.30;;
64011;SDS011;50211;52.768;12.124;2022-07-23T11:49:22;4.50;;;1.35;;
64011;SDS011;50211;52.768;12.124;2022-07-23T11:52:02;3.42;;;1.42;;
64011;SDS011;50211;52.768;12.124;2022-07-23T11:54:32;1.10;;;1.00;;
64011;SDS011;50211;52.768;12.124;2022-07-23T11:56:59;1.27;;;1.10;;
64011;SDS011;50211;52.768;12.124;2022-07-23T11:59:27;4.35;;;1.30;;
64011;SDS011;50211;52.768;12.124;2022-07-23T12:01:59;2.17;;;1.13;;
64011;SDS011;50211;52.768;12.124;2022-07-23T12:04:39;4.00;;;0.90;;
64011;SDS011;50211;52.768;12.124;2022-07-23T12:09:55;1.73;;;1.00;;
64011;SDS011;50211;52.768;12.124;2022-07-23T12:12:22;4.00;;;1.45;;
64011;SDS011;50211;52.768;12.124;2022-07-23T12:14:52;2.20;;;1.30;;
64011;SDS011;50211;52.768;12.124;2022-07-23T12:17:30;2.03;;;1.10;;
64011;SDS011;50211;52.768;12.124;2022-07-23T12:19:57;3.65;;;1.23;;
64011;SDS011;50211;52.768;12.124;2022-07-23T12:22:24;1.50;;;1.00;;
64011;SDS011;50211;52.768;12.124;2022-07-23T12:27:22;1.20;;;1.05;;
64011;SDS011;50211;52.768;12.124;2022-07-23T12:29:48;2.58;;;1.40;;
64011;SDS011;50211;52.768;12.124;2022-07-23T12:32:27;1.77;;;1.00;;
64011;SDS011;50211;52.768;12.124;2022-07-23T12:35:03;4.28;;;1.30;;
64011;SDS011;50211;52.768;12.124;2022-07-23T12:37:32;3.92;;;1.23;;
64011;SDS011;50211;52.768;12.124;2022-07-23T12:40:17;3.58;;;1.42;;
64011;SDS011;50211;52.768;12.124;2022-07-23T12:42:48;1.88;;;1.23;;
64011;SDS011;50211;52.768;12.124;2022-07-23T12:45:15;6.10;;;1.40;;
64011;SDS011;50211;52.768;12.124;2022-07-23T12:47:58;3.58;;;1.17;;
64011;SDS011;50211;52.768;12.124;2022-07-23T12:50:39;2.92;;;1.27;;
64011;SDS011;50211;52.768;12.124;2022-07-23T12:53:20;4.40;;;1.30;;
64011;SDS011;50211;52.768;12.124;2022-07-23T12:55:48;2.75;;;1.20;;
64011;SDS011;50211;52.768;12.124;2022-07-23T12:58:18;1.80;;;1.27;;
64011;SDS011;50211;52.768;12.124;2022-07-23T13:00:52;2.05;;;1.40;;
64011;SDS011;50211;52.768;12.124;2022-07-23T13:03:25;2.90;;;1.50;;
64011;SDS011;50211;52.768;12.124;2022-07-23T13:05:59;2.03;;;1.48;;
64011;SDS011;50211;52.768;12.124;2022-07-23T13:08:26;2.88;;;1.23;;
64011;SDS011;50211;52.768;12.124;2022-07-23T13:10:53;3.95;;;1.15;;
64011;SDS011;50211;52.768;12.124;2022-07-23T13:13:20;3.17;;;1.23;;
64011;SDS011;50211;52.768;12.124;2022-07-23T13:15:47;4.05;;;1.27;;
64011;SDS011;50211;52.768;12.124;2022-07-23T13:18:13;2.50;;;1.27;;
64011;SDS011;50211;52.768;12.124;2022-07-23T13:20:39;2.55;;;1.50;;
64011;SDS011;50211;52.768;12.124;2022-07-23T13:23:05;4.32;;;1.42;;
64011;SDS011;50211;52.768;12.124;2022-07-23T13:25:31;4.85;;;1.33;;
64011;SDS011;50211;52.768;12.124;2022-07-23T13:27:57;3.30;;;1.13;;
64011;SDS011;50211;52.768;12.124;2022-07-23T13:30:22;3.42;;;1.10;;
64011;SDS011;50211;52.768;12.124;2022-07-23T13:32:48;2.67;;;1.35;;
64011;SDS011;50211;52.768;12.124;2022-07-23T13:35:14;2.47;;;1.05;;
64011;SDS011;50211;52.768;12.124;2022-07-23T13:37:39;1.92;;;0.98;;
64011;SDS011;50211;52.768;12.124;2022-07-23T13:40:05;3.28;;;1.20;;
64011;SDS011;50211;52.768;12.124;2022-07-23T13:42:31;3.78;;;1.40;;
64011;SDS011;50211;52.768;12.124;2022-07-23T13:44:56;2.15;;;1.10;;
64011;SDS011;50211;52.768;12.124;2022-07-23T13:47:22;2.53;;;1.40;;
64011;SDS011;50211;52.768;12.124;2022-07-23T13:49:47;1.25;;;1.00;;
64011;SDS011;50211;52.768;12.124;2022-07-23T13:52:13;2.42;;;1.10;;
64011;SDS011;50211;52.768;12.124;2022-07-23T13:54:39;1.17;;;0.70;;
64011;SDS011;50211;52.768;12.124;2022-07-23T13:57:04;3.30;;;1.00;;
64011;SDS011;50211;52.768;12.124;2022-07-23T13:59:30;1.13;;;0.90;;
64011;SDS011;50211;52.768;12.124;2022-07-23T14:01:55;3.33;;;0.90;;
64011;SDS011;50211;52.768;12.124;2022-07-23T14:04:21;6.95;;;1.00;;
64011;SDS011;50211;52.768;12.124;2022-07-23T14:06:47;1.50;;;1.00;;
64011;SDS011;50211;52.768;12.124;2022-07-23T14:09:13;2.92;;;1.20;;
64011;SDS011;50211;52.768;12.124;2022-07-23T14:11:38;3.10;;;0.90;;
64011;SDS011;50211;52.768;12.124;2022-07-23T14:14:04;3.13;;;1.05;;
64011;SDS011;50211;52.768;12.124;2022-07-23T14:16:29;2.15;;;1.13;;
64011;SDS011;50211;52.768;12.124;2022-07-23T14:18:55;2.10;;;0.93;;
64011;SDS011;50211;52.768;12.124;2022-07-23T14:21:21;2.00;;;1.15;;
64011;SDS011;50211;52.768;12.124;2022-07-23T14:23:46;1.13;;;1.00;;
64011;SDS011;50211;52.768;12.124;2022-07-23T14:26:12;1.67;;;1.00;;
64011;SDS011;50211;52.768;12.124;2022-07-23T14:28:37;3.60;;;0.80;;
64011;SDS011;50211;52.768;12.124;2022-07-23T14:31:03;4.13;;;0.90;;
64011;SDS011;50211;52.768;12.124;2022-07-23T14:33:28;1.92;;;0.85;;
64011;SDS011;50211;52.768;12.124;2022-07-23T14:35:54;1.52;;;1.10;;
64011;SDS011;50211;52.768;12.124;2022-07-23T14:38:19;0.80;;;0.70;;
64011;SDS011;50211;52.768;12.124;2022-07-23T14:40:45;3.22;;;0.90;;
64011;SDS011;50211;52.768;12.124;2022-07-23T14:43:10;2.25;;;0.88;;
64011;SDS011;50211;52.768;12.124;2022-07-23T14:45:36;2.38;;;1.02;;
64011;SDS011;50211;52.768;12.124;2022-07-23T14:48:01;4.22;;;0.82;;
64011;SDS011;50211;52.768;12.124;2022-07-23T14:50:27;1.33;;;0.85;;
64011;SDS011;50211;52.768;12.124;2022-07-23T14:52:53;1.10;;;1.00;;
64011;SDS011;50211;52.768;12.124;2022-07-23T14:55:19;0.73;;;0.70;;
64011;SDS011;50211;52.768;12.124;2022-07-23T14:57:44;1.65;;;0.80;;
64011;SDS011;50211;52.768;12.124;2022-07-23T15:00:10;2.65;;;0.80;;
64011;SDS011;50211;52.768;12.124;2022-07-23T15:02:36;2.88;;;1.20;;
64011;SDS011;50211;52.768;12.124;2022-07-23T15:05:02;1.73;;;0.90;;
64011;SDS011;50211;52.768;12.124;2022-07-23T15:07:28;7.38;;;1.10;;
64011;SDS011;50211;52.768;12.124;2022-07-23T15:09:55;2.45;;;0.82;;
64011;SDS011;50211;52.768;12.124;2022-07-23T15:12:21;1.30;;;0.85;;
64011;SDS011;50211;52.768;12.124;2022-07-23T15:14:47;4.13;;;1.00;;
64011;SDS011;50211;52.768;12.124;2022-07-23T15:17:12;0.70;;;0.70;;